createdAt,value
2023-01-12T00:01:37.694Z,7.60
2023-01-12T00:04:27.619Z,7.70
2023-01-12T00:07:21.653Z,7.70
2023-01-12T00:10:24.742Z,7.70
2023-01-12T00:13:03.466Z,7.70
2023-01-12T00:16:33.779Z,7.70
2023-01-12T00:19:17.335Z,7.80
2023-01-12T00:22:00.196Z,7.80
2023-01-12T00:24:44.939Z,7.80
2023-01-12T00:27:33.130Z,7.80
2023-01-12T00:30:30.029Z,7.80
2023-01-12T00:33:09.091Z,7.90
2023-01-12T00:36:26.763Z,8.00
2023-01-12T00:39:25.011Z,8.10
2023-01-12T00:42:21.006Z,8.10
2023-01-12T00:45:49.684Z,8.20
2023-01-12T00:48:56.977Z,8.20
2023-01-12T00:54:51.082Z,8.10
2023-01-12T00:57:51.592Z,8.10
2023-01-12T01:00:29.431Z,8.20
2023-01-12T01:03:49.037Z,8.20
2023-01-12T01:06:57.041Z,8.30
2023-01-12T01:09:52.766Z,8.20
2023-01-12T01:16:44.388Z,8.30
2023-01-12T01:19:29.347Z,8.30
2023-01-12T01:22:32.287Z,8.20
2023-01-12T01:25:05.719Z,8.20
2023-01-12T01:27:42.004Z,8.20
2023-01-12T01:30:57.778Z,8.10
2023-01-12T01:33:57.855Z,8.10
2023-01-12T01:36:42.176Z,8.10
2023-01-12T01:39:42.398Z,8.00
2023-01-12T01:42:28.892Z,8.10
2023-01-12T01:45:07.504Z,8.10
2023-01-12T01:48:11.633Z,8.20
2023-01-12T01:50:45.687Z,8.20
2023-01-12T01:54:05.910Z,8.20
2023-01-12T01:57:06.689Z,8.10
2023-01-12T02:03:21.050Z,8.10
2023-01-12T02:06:01.709Z,8.10
2023-01-12T02:09:16.502Z,8.20
2023-01-12T02:12:55.158Z,8.10
2023-01-12T02:16:17.921Z,8.20
2023-01-12T02:31:33.670Z,8.40
2023-01-12T02:34:47.496Z,8.30
2023-01-12T02:38:28.470Z,8.30
2023-01-12T02:42:24.081Z,8.30
2023-01-12T02:49:22.491Z,8.20
2023-01-12T02:55:51.977Z,8.20
2023-01-12T02:58:41.604Z,8.20
2023-01-12T03:01:23.623Z,8.10
2023-01-12T03:04:25.932Z,8.10
2023-01-12T03:07:21.323Z,8.10
2023-01-12T03:10:17.931Z,8.10
2023-01-12T03:13:12.798Z,8.10
2023-01-12T03:16:14.462Z,8.10
2023-01-12T03:19:33.158Z,8.10
2023-01-12T03:25:07.171Z,8.00
2023-01-12T03:28:04.088Z,8.00
2023-01-12T03:31:02.702Z,7.90
2023-01-12T03:34:01.021Z,8.00
2023-01-12T03:36:37.486Z,8.00
2023-01-12T03:43:22.777Z,7.90
2023-01-12T03:46:33.242Z,7.90
2023-01-12T03:49:46.571Z,7.90
2023-01-12T03:52:26.976Z,7.90
2023-01-12T03:55:39.608Z,7.90
2023-01-12T03:58:20.249Z,7.90
2023-01-12T04:00:53.320Z,7.90
2023-01-12T04:03:29.873Z,8.00
2023-01-12T04:09:24.151Z,8.00
2023-01-12T04:13:18.649Z,8.10
2023-01-12T04:15:39.115Z,8.10
2023-01-12T04:18:33.060Z,8.20
2023-01-12T04:22:15.641Z,8.20
2023-01-12T04:24:24.714Z,8.10
2023-01-12T04:27:06.355Z,8.10
2023-01-12T04:29:58.092Z,8.10
2023-01-12T04:33:00.401Z,8.10
2023-01-12T04:36:02.794Z,8.10
2023-01-12T04:39:00.554Z,8.10
2023-01-12T04:41:39.934Z,8.10
2023-01-12T04:45:21.436Z,8.00
2023-01-12T04:47:12.256Z,8.10
2023-01-12T04:50:04.140Z,8.10
2023-01-12T04:52:47.280Z,8.10
2023-01-12T04:56:06.361Z,8.10
2023-01-12T04:58:18.915Z,8.20
2023-01-12T05:01:16.464Z,8.30
2023-01-12T05:03:56.486Z,8.30
2023-01-12T05:06:55.361Z,8.40
2023-01-12T05:10:03.744Z,8.40
2023-01-12T05:12:37.740Z,8.50
2023-01-12T05:15:14.591Z,8.40
2023-01-12T05:18:15.324Z,8.40
2023-01-12T05:21:49.494Z,8.40
2023-01-12T05:24:19.024Z,8.30
2023-01-12T05:26:59.860Z,8.30
2023-01-12T05:29:30.459Z,8.30
2023-01-12T05:32:16.871Z,8.20
2023-01-12T05:35:08.259Z,8.20
2023-01-12T05:37:51.464Z,8.30
2023-01-12T05:40:51.630Z,8.20
2023-01-12T05:43:46.546Z,8.30
2023-01-12T05:46:44.121Z,8.30
2023-01-12T05:49:51.559Z,8.20
2023-01-12T05:52:29.861Z,8.20
2023-01-12T05:55:15.162Z,8.20
2023-01-12T05:57:52.448Z,8.20
2023-01-12T06:00:39.732Z,8.20
2023-01-12T06:03:09.507Z,8.30
2023-01-12T06:05:51.846Z,8.30
2023-01-12T06:09:06.300Z,8.20
2023-01-12T06:11:59.830Z,8.20
2023-01-12T06:14:35.038Z,8.20
2023-01-12T06:17:45.132Z,8.20
2023-01-12T06:20:25.884Z,8.20
2023-01-12T06:23:20.136Z,8.20
2023-01-12T06:25:56.171Z,8.30
2023-01-12T06:28:40.726Z,8.30
2023-01-12T06:31:30.795Z,8.30
2023-01-12T06:34:36.069Z,8.30
2023-01-12T06:37:16.223Z,8.30
2023-01-12T06:40:01.478Z,8.40
2023-01-12T06:42:33.408Z,8.40
2023-01-12T06:45:04.726Z,8.40
2023-01-12T06:48:08.713Z,8.40
2023-01-12T06:50:45.503Z,8.40
2023-01-12T06:53:37.468Z,8.40
2023-01-12T06:56:18.911Z,8.30
2023-01-12T06:59:03.554Z,8.30
2023-01-12T07:04:47.346Z,8.30
2023-01-12T07:07:21.015Z,8.30
2023-01-12T07:09:51.351Z,8.40
2023-01-12T07:12:18.998Z,8.40
2023-01-12T07:14:54.870Z,8.40
2023-01-12T07:17:48.135Z,8.40
2023-01-12T07:20:51.264Z,8.50
2023-01-12T07:24:11.288Z,8.40
2023-01-12T07:27:00.561Z,8.40
2023-01-12T07:30:20.746Z,8.40
2023-01-12T07:34:07.975Z,8.40
2023-01-12T07:38:32.043Z,8.40
2023-01-12T07:41:32.830Z,8.50
2023-01-12T07:44:09.687Z,8.50
2023-01-12T07:47:17.628Z,8.50
2023-01-12T07:50:32.157Z,8.50
2023-01-12T07:53:45.045Z,8.50
2023-01-12T07:56:40.276Z,8.50
2023-01-12T07:59:28.628Z,8.50
2023-01-12T08:02:34.053Z,8.50
2023-01-12T08:05:51.466Z,8.50
2023-01-12T08:08:41.063Z,8.50
2023-01-12T08:23:00.056Z,8.70
2023-01-12T08:33:49.960Z,8.70
2023-01-12T08:38:15.389Z,8.70
2023-01-12T08:41:26.448Z,8.70
2023-01-12T08:48:56.603Z,8.80
2023-01-12T08:52:16.441Z,8.90
2023-01-12T08:55:49.601Z,8.90
2023-01-12T09:00:41.692Z,8.80
2023-01-12T09:11:22.744Z,8.80
2023-01-12T09:30:27.838Z,8.90
2023-01-12T09:36:56.041Z,9.00
2023-01-12T09:44:26.639Z,9.10
2023-01-12T09:51:46.199Z,9.10
2023-01-12T09:54:49.147Z,9.10
2023-01-12T10:03:14.770Z,9.10
2023-01-12T10:06:19.422Z,9.10
2023-01-12T10:17:50.375Z,9.20
2023-01-12T10:20:53.595Z,9.20
2023-01-12T10:24:24.592Z,9.20
2023-01-12T10:26:55.767Z,9.20
2023-01-12T10:30:06.663Z,9.20
2023-01-12T10:33:04.026Z,9.20
2023-01-12T10:35:44.308Z,9.20
2023-01-12T10:38:50.137Z,9.20
2023-01-12T10:41:49.514Z,9.20
2023-01-12T10:44:36.421Z,9.20
2023-01-12T10:47:22.881Z,9.20
2023-01-12T10:51:08.033Z,9.20
2023-01-12T10:54:11.057Z,9.20
2023-01-12T10:57:27.839Z,9.20
2023-01-12T11:00:49.329Z,9.20
2023-01-12T11:04:02.131Z,9.30
2023-01-12T11:07:42.658Z,9.20
2023-01-12T11:11:16.875Z,9.20
2023-01-12T11:14:13.174Z,9.20
2023-01-12T11:18:03.667Z,9.30
2023-01-12T11:21:24.271Z,9.30
2023-01-12T11:24:49.224Z,9.30
2023-01-12T11:28:09.091Z,9.30
2023-01-12T11:31:33.960Z,9.20
2023-01-12T11:34:50.192Z,9.30
2023-01-12T11:37:55.591Z,9.30
2023-01-12T11:40:43.059Z,9.30
2023-01-12T11:44:05.803Z,9.40
2023-01-12T11:47:05.420Z,9.40
2023-01-12T11:50:12.675Z,9.40
2023-01-12T11:54:12.794Z,9.50
2023-01-12T12:00:38.968Z,9.40
2023-01-12T12:05:37.458Z,9.40
2023-01-12T12:08:17.944Z,9.50
2023-01-12T12:12:18.999Z,9.50
2023-01-12T12:15:01.027Z,9.50
2023-01-12T12:18:37.725Z,9.60
2023-01-12T12:25:52.423Z,9.60
2023-01-12T12:29:15.641Z,9.50
2023-01-12T12:36:45.296Z,9.50
2023-01-12T12:40:14.397Z,9.50
2023-01-12T12:43:39.525Z,9.50
2023-01-12T12:47:04.632Z,9.50
2023-01-12T12:49:51.375Z,9.60
2023-01-12T12:56:36.555Z,9.60
2023-01-12T12:59:36.538Z,9.60
2023-01-12T13:03:27.669Z,9.60
2023-01-12T13:10:01.695Z,9.70
2023-01-12T13:13:35.041Z,9.70
2023-01-12T13:24:03.146Z,9.60
2023-01-12T13:27:22.745Z,9.60
2023-01-12T13:33:49.845Z,9.70
2023-01-12T13:37:39.673Z,9.70
2023-01-12T13:40:43.132Z,9.70
2023-01-12T13:44:25.793Z,9.70
2023-01-12T13:47:49.096Z,9.80
2023-01-12T13:53:47.717Z,9.80
2023-01-12T13:57:00.756Z,9.80
2023-01-12T14:00:43.369Z,9.80
2023-01-12T14:04:16.371Z,9.90
2023-01-12T14:07:45.691Z,9.80
2023-01-12T14:11:02.890Z,9.90
2023-01-12T14:17:49.516Z,10.00
2023-01-12T14:21:03.285Z,10.00
2023-01-12T14:23:38.950Z,10.00
2023-01-12T14:26:26.628Z,10.00
2023-01-12T14:32:04.638Z,10.10
2023-01-12T14:35:01.455Z,10.10
2023-01-12T14:37:39.030Z,10.10
2023-01-12T14:41:31.278Z,10.20
2023-01-12T14:45:57.265Z,10.10
2023-01-12T14:49:29.073Z,10.10
2023-01-12T14:55:48.967Z,10.20
2023-01-12T14:59:17.154Z,10.20
2023-01-12T15:02:56.428Z,10.20
2023-01-12T15:06:15.476Z,10.30
2023-01-12T15:10:16.679Z,10.30
2023-01-12T15:12:59.688Z,10.30
2023-01-12T15:17:56.990Z,10.30
2023-01-12T15:20:00.625Z,10.40
2023-01-12T15:23:20.572Z,10.30
2023-01-12T15:26:42.556Z,10.30
2023-01-12T15:29:30.140Z,10.30
2023-01-12T15:32:48.205Z,10.30
2023-01-12T15:35:53.667Z,10.40
2023-01-12T15:39:04.620Z,10.30
2023-01-12T15:42:06.513Z,10.30
2023-01-12T15:45:03.739Z,10.30
2023-01-12T15:48:03.498Z,10.30
2023-01-12T15:51:06.067Z,10.20
2023-01-12T15:54:17.566Z,10.20
2023-01-12T15:57:18.239Z,10.10
2023-01-12T16:00:13.611Z,10.10
2023-01-12T16:03:44.426Z,10.10
2023-01-12T16:06:43.562Z,10.10
2023-01-12T16:10:22.205Z,10.10
2023-01-12T16:13:40.777Z,10.00
2023-01-12T16:16:59.496Z,10.00
2023-01-12T16:19:57.793Z,10.00
2023-01-12T16:26:27.079Z,9.90
2023-01-12T16:33:06.530Z,9.90
2023-01-12T16:36:33.569Z,9.90
2023-01-12T16:40:02.661Z,9.90
2023-01-12T16:42:46.683Z,10.00
2023-01-12T16:45:32.902Z,10.00
2023-01-12T16:48:28.116Z,10.00
2023-01-12T16:51:39.657Z,10.10
2023-01-12T16:54:24.138Z,10.10
2023-01-12T16:56:56.473Z,10.10
2023-01-12T16:59:37.677Z,10.10
2023-01-12T17:02:17.385Z,10.10
2023-01-12T17:04:59.359Z,10.10
2023-01-12T17:07:52.763Z,10.20
2023-01-12T17:10:50.777Z,10.10
2023-01-12T17:13:42.888Z,10.10
2023-01-12T17:16:22.382Z,10.10
2023-01-12T17:19:01.110Z,10.10
2023-01-12T17:22:00.206Z,10.10
2023-01-12T17:25:18.856Z,10.10
2023-01-12T17:28:14.185Z,10.10
2023-01-12T17:31:01.019Z,10.20
2023-01-12T17:36:54.514Z,10.00
2023-01-12T17:39:38.147Z,9.90
2023-01-12T17:42:40.213Z,9.90
2023-01-12T17:46:01.082Z,9.90
2023-01-12T17:48:35.800Z,9.90
2023-01-12T17:51:44.682Z,9.90
2023-01-12T17:57:31.002Z,9.80
2023-01-12T18:04:19.073Z,9.80
2023-01-12T18:07:04.460Z,9.80
2023-01-12T18:11:10.643Z,9.80
2023-01-12T18:13:47.023Z,9.80
2023-01-12T18:16:57.523Z,9.80
2023-01-12T18:20:20.259Z,9.70
2023-01-12T18:26:30.313Z,9.70
2023-01-12T18:29:10.407Z,9.70
2023-01-12T18:31:55.796Z,9.70
2023-01-12T18:34:56.757Z,9.80
2023-01-12T18:38:20.457Z,9.80
2023-01-12T18:41:28.686Z,9.80
2023-01-12T18:44:16.695Z,9.80
2023-01-12T18:47:04.070Z,9.80
2023-01-12T18:50:05.954Z,9.80
2023-01-12T18:53:13.247Z,9.80
2023-01-12T18:58:34.568Z,9.80
2023-01-12T19:01:19.519Z,9.80
2023-01-12T19:04:07.480Z,9.90
2023-01-12T19:06:54.875Z,9.80
2023-01-12T19:09:38.650Z,9.90
2023-01-12T19:12:14.582Z,9.80
2023-01-12T19:15:02.198Z,9.80
2023-01-12T19:17:35.731Z,9.70
2023-01-12T19:20:21.131Z,9.70
2023-01-12T19:23:07.273Z,9.70
2023-01-12T19:25:53.401Z,9.70
2023-01-12T19:28:36.623Z,9.70
2023-01-12T19:31:15.177Z,9.60
2023-01-12T19:33:48.629Z,9.60
2023-01-12T19:36:16.374Z,9.60
2023-01-12T19:38:59.965Z,9.60
2023-01-12T19:41:49.380Z,9.70
2023-01-12T19:44:19.316Z,9.60
2023-01-12T19:46:48.338Z,9.60
2023-01-12T19:49:17.661Z,9.60
2023-01-12T19:51:52.892Z,9.60
2023-01-12T19:54:24.009Z,9.60
2023-01-12T19:56:56.475Z,9.60
2023-01-12T19:59:27.981Z,9.60
2023-01-12T20:02:02.755Z,9.60
2023-01-12T20:04:38.252Z,9.60
2023-01-12T20:07:16.640Z,9.50
2023-01-12T20:10:19.131Z,9.60
2023-01-12T20:13:13.514Z,9.60
2023-01-12T20:15:49.898Z,9.60
2023-01-12T20:18:27.057Z,9.50
2023-01-12T20:21:25.407Z,9.60
2023-01-12T20:26:58.557Z,9.60
2023-01-12T20:31:06.022Z,9.60
2023-01-12T20:32:46.574Z,9.60
2023-01-12T20:35:27.363Z,9.60
2023-01-12T20:38:27.815Z,9.60
2023-01-12T20:42:42.846Z,9.60
2023-01-12T20:44:27.343Z,9.60
2023-01-12T20:47:17.941Z,9.60
2023-01-12T20:50:02.516Z,9.70
2023-01-12T20:52:39.769Z,9.70
2023-01-12T20:55:24.050Z,9.70
2023-01-12T20:58:00.844Z,9.70
2023-01-12T21:01:09.571Z,9.70
2023-01-12T21:07:42.797Z,9.70
2023-01-12T21:10:08.907Z,9.70
2023-01-12T21:13:02.489Z,9.70
2023-01-12T21:16:40.490Z,9.70
2023-01-12T21:19:18.060Z,9.70
2023-01-12T21:21:59.523Z,9.70
2023-01-12T21:24:39.167Z,9.70
2023-01-12T21:27:23.605Z,9.70
2023-01-12T21:29:58.339Z,9.70
2023-01-12T21:32:38.919Z,9.60
2023-01-12T21:35:17.637Z,9.60
2023-01-12T21:37:53.955Z,9.60
2023-01-12T21:40:36.470Z,9.60
2023-01-12T21:43:25.373Z,9.60
2023-01-12T21:46:29.450Z,9.60
2023-01-12T21:49:10.511Z,9.60
2023-01-12T21:51:58.218Z,9.60
2023-01-12T21:54:36.876Z,9.60
2023-01-12T21:57:28.553Z,9.50
2023-01-12T22:00:02.314Z,9.50
2023-01-12T22:02:45.114Z,9.50
2023-01-12T22:05:35.134Z,9.50
2023-01-12T22:08:07.359Z,9.40
2023-01-12T22:11:14.053Z,9.40
2023-01-12T22:13:51.224Z,9.40
2023-01-12T22:16:53.239Z,9.40
2023-01-12T22:19:55.801Z,9.40
2023-01-12T22:22:39.297Z,9.30
2023-01-12T22:25:19.968Z,9.20
2023-01-12T22:27:59.592Z,9.20
2023-01-12T22:30:34.606Z,9.20
2023-01-12T22:33:05.791Z,9.20
2023-01-12T22:35:40.577Z,9.10
2023-01-12T22:38:24.990Z,9.10
2023-01-12T22:41:06.045Z,9.00
2023-01-12T22:46:39.440Z,9.00
2023-01-12T22:49:23.774Z,9.10
2023-01-12T22:55:15.128Z,9.00
2023-01-12T22:58:07.006Z,9.00
2023-01-12T23:00:41.145Z,9.00
2023-01-12T23:03:16.343Z,9.00
2023-01-12T23:06:10.065Z,8.90
2023-01-12T23:08:46.030Z,8.90
2023-01-12T23:11:40.908Z,8.80
2023-01-12T23:14:12.052Z,8.80
2023-01-12T23:16:56.324Z,8.70
2023-01-12T23:19:37.657Z,8.70
2023-01-12T23:22:06.202Z,8.70
2023-01-12T23:24:53.763Z,8.70
2023-01-12T23:27:27.806Z,8.70
2023-01-12T23:30:04.191Z,8.60
2023-01-12T23:32:35.749Z,8.70
2023-01-12T23:35:14.939Z,8.60
2023-01-12T23:38:11.465Z,8.60
2023-01-12T23:40:46.959Z,8.50
2023-01-12T23:43:14.558Z,8.60
2023-01-12T23:45:55.260Z,8.60
2023-01-12T23:48:27.318Z,8.60
2023-01-12T23:51:09.818Z,8.60
2023-01-12T23:53:47.832Z,8.60
2023-01-12T23:56:29.615Z,8.60
2023-01-12T23:59:07.936Z,8.60
